Terminal Aerodrome Forecast
Issued by NWS St Louis, MO

Home | Current Version | Previous Version | Graphics & Text | Print | Product List | Glossary On
Versions: 1 2 3 4 5 6 7 8 9 10 11 12 13 14 15 16 17 18 19 20 21 22 23 24 25 26
852
FTUS43 KLSX 271127
TAFSTL
TAF
KSTL 271127Z 2712/2818 20006KT P6SM SCT040 BKN120
     FM280100 VRB04KT P6SM SCT050 BKN250
     FM281000 VRB04KT 5SM BR SCT250
     FM281400 14006KT P6SM SCT050 SCT250=

USA.gov is the U.S. government's official web portal to all federal, state and local government web resources and services.